sensor_id;sensor_type;location;lat;lon;timestamp;P1;durP1;ratioP1;P2;durP2;ratioP2
59314;SDS011;46521;50.160;20.802;2022-07-24T00:00:09;17.28;;;11.93;;
59314;SDS011;46521;50.160;20.802;2022-07-24T00:10:30;16.08;;;11.10;;
59314;SDS011;46521;50.160;20.802;2022-07-24T00:20:32;17.30;;;11.20;;
59314;SDS011;46521;50.160;20.802;2022-07-24T00:30:33;15.25;;;11.13;;
59314;SDS011;46521;50.160;20.802;2022-07-24T00:40:35;14.45;;;10.68;;
59314;SDS011;46521;50.160;20.802;2022-07-24T00:50:37;15.37;;;11.00;;
59314;SDS011;46521;50.160;20.802;2022-07-24T01:00:39;13.08;;;9.30;;
59314;SDS011;46521;50.160;20.802;2022-07-24T01:10:40;14.90;;;10.73;;
59314;SDS011;46521;50.160;20.802;2022-07-24T01:20:45;17.58;;;10.80;;
59314;SDS011;46521;50.160;20.802;2022-07-24T01:30:47;14.55;;;9.68;;
59314;SDS011;46521;50.160;20.802;2022-07-24T01:40:49;14.43;;;10.27;;
59314;SDS011;46521;50.160;20.802;2022-07-24T01:50:50;19.67;;;13.27;;
59314;SDS011;46521;50.160;20.802;2022-07-24T02:00:52;19.40;;;13.20;;
59314;SDS011;46521;50.160;20.802;2022-07-24T02:10:53;16.75;;;12.25;;
59314;SDS011;46521;50.160;20.802;2022-07-24T02:20:55;17.70;;;14.00;;
59314;SDS011;46521;50.160;20.802;2022-07-24T02:30:56;19.70;;;14.80;;
59314;SDS011;46521;50.160;20.802;2022-07-24T02:40:58;22.93;;;15.50;;
59314;SDS011;46521;50.160;20.802;2022-07-24T02:50:59;18.73;;;14.55;;
59314;SDS011;46521;50.160;20.802;2022-07-24T03:01:01;19.20;;;16.20;;
59314;SDS011;46521;50.160;20.802;2022-07-24T03:11:02;18.30;;;14.38;;
59314;SDS011;46521;50.160;20.802;2022-07-24T03:21:04;17.77;;;14.10;;
59314;SDS011;46521;50.160;20.802;2022-07-24T03:31:06;16.58;;;14.15;;
59314;SDS011;46521;50.160;20.802;2022-07-24T03:41:08;20.98;;;16.38;;
59314;SDS011;46521;50.160;20.802;2022-07-24T03:51:09;19.08;;;15.68;;
59314;SDS011;46521;50.160;20.802;2022-07-24T04:01:11;20.27;;;16.77;;
59314;SDS011;46521;50.160;20.802;2022-07-24T04:11:12;19.73;;;17.40;;
59314;SDS011;46521;50.160;20.802;2022-07-24T04:21:14;20.90;;;18.08;;
59314;SDS011;46521;50.160;20.802;2022-07-24T04:31:16;23.10;;;19.40;;
59314;SDS011;46521;50.160;20.802;2022-07-24T04:41:17;27.53;;;23.25;;
59314;SDS011;46521;50.160;20.802;2022-07-24T04:51:19;29.05;;;23.28;;
59314;SDS011;46521;50.160;20.802;2022-07-24T05:01:20;30.40;;;23.85;;
59314;SDS011;46521;50.160;20.802;2022-07-24T05:11:21;25.90;;;20.63;;
59314;SDS011;46521;50.160;20.802;2022-07-24T05:34:59;21.25;;;16.13;;
59314;SDS011;46521;50.160;20.802;2022-07-24T05:45:00;19.18;;;16.30;;
59314;SDS011;46521;50.160;20.802;2022-07-24T05:55:03;15.53;;;13.83;;
59314;SDS011;46521;50.160;20.802;2022-07-24T06:05:05;14.93;;;13.03;;
59314;SDS011;46521;50.160;20.802;2022-07-24T06:15:07;15.43;;;11.75;;
59314;SDS011;46521;50.160;20.802;2022-07-24T06:25:09;13.78;;;12.00;;
59314;SDS011;46521;50.160;20.802;2022-07-24T06:35:13;12.95;;;10.18;;
59314;SDS011;46521;50.160;20.802;2022-07-24T06:45:15;15.53;;;10.77;;
59314;SDS011;46521;50.160;20.802;2022-07-24T06:55:16;13.40;;;10.00;;
59314;SDS011;46521;50.160;20.802;2022-07-24T07:05:18;11.95;;;9.83;;
59314;SDS011;46521;50.160;20.802;2022-07-24T07:15:19;10.88;;;8.00;;
59314;SDS011;46521;50.160;20.802;2022-07-24T07:25:21;10.40;;;8.35;;
59314;SDS011;46521;50.160;20.802;2022-07-24T07:35:22;10.83;;;7.05;;
59314;SDS011;46521;50.160;20.802;2022-07-24T07:45:24;8.70;;;6.15;;
59314;SDS011;46521;50.160;20.802;2022-07-24T07:55:25;8.97;;;5.40;;
59314;SDS011;46521;50.160;20.802;2022-07-24T08:05:26;9.80;;;6.60;;
59314;SDS011;46521;50.160;20.802;2022-07-24T08:15:28;9.23;;;4.25;;
59314;SDS011;46521;50.160;20.802;2022-07-24T08:25:30;7.75;;;4.63;;
59314;SDS011;46521;50.160;20.802;2022-07-24T08:35:31;6.48;;;3.63;;
59314;SDS011;46521;50.160;20.802;2022-07-24T08:45:36;6.78;;;3.58;;
59314;SDS011;46521;50.160;20.802;2022-07-24T08:55:39;7.48;;;4.88;;
59314;SDS011;46521;50.160;20.802;2022-07-24T09:05:57;7.37;;;3.70;;
59314;SDS011;46521;50.160;20.802;2022-07-24T09:15:59;6.48;;;3.48;;
59314;SDS011;46521;50.160;20.802;2022-07-24T09:26:01;5.55;;;2.98;;
59314;SDS011;46521;50.160;20.802;2022-07-24T09:36:03;5.50;;;3.28;;
59314;SDS011;46521;50.160;20.802;2022-07-24T09:46:15;7.38;;;4.10;;
59314;SDS011;46521;50.160;20.802;2022-07-24T09:56:23;8.00;;;4.05;;
59314;SDS011;46521;50.160;20.802;2022-07-24T10:06:25;6.50;;;4.10;;
59314;SDS011;46521;50.160;20.802;2022-07-24T10:16:28;5.90;;;3.93;;
59314;SDS011;46521;50.160;20.802;2022-07-24T10:26:35;7.45;;;3.70;;
59314;SDS011;46521;50.160;20.802;2022-07-24T10:36:39;6.23;;;3.43;;
59314;SDS011;46521;50.160;20.802;2022-07-24T10:57:07;7.38;;;3.75;;
59314;SDS011;46521;50.160;20.802;2022-07-24T11:07:09;6.65;;;3.53;;
59314;SDS011;46521;50.160;20.802;2022-07-24T11:27:42;6.30;;;2.73;;
59314;SDS011;46521;50.160;20.802;2022-07-24T11:37:45;5.60;;;3.03;;
59314;SDS011;46521;50.160;20.802;2022-07-24T11:47:47;6.03;;;3.17;;
59314;SDS011;46521;50.160;20.802;2022-07-24T11:57:52;6.08;;;2.85;;
59314;SDS011;46521;50.160;20.802;2022-07-24T12:07:57;5.93;;;3.03;;
59314;SDS011;46521;50.160;20.802;2022-07-24T12:18:04;5.73;;;3.00;;
59314;SDS011;46521;50.160;20.802;2022-07-24T12:28:18;6.20;;;3.10;;
59314;SDS011;46521;50.160;20.802;2022-07-24T12:38:23;5.90;;;2.93;;
59314;SDS011;46521;50.160;20.802;2022-07-24T12:48:26;6.15;;;3.38;;
59314;SDS011;46521;50.160;20.802;2022-07-24T12:58:28;6.03;;;3.00;;
59314;SDS011;46521;50.160;20.802;2022-07-24T13:08:29;5.10;;;2.98;;
59314;SDS011;46521;50.160;20.802;2022-07-24T13:18:30;6.18;;;3.63;;
59314;SDS011;46521;50.160;20.802;2022-07-24T13:28:32;11.70;;;3.55;;
59314;SDS011;46521;50.160;20.802;2022-07-24T13:38:33;7.67;;;3.67;;
59314;SDS011;46521;50.160;20.802;2022-07-24T13:48:35;5.57;;;3.17;;
59314;SDS011;46521;50.160;20.802;2022-07-24T13:58:36;5.35;;;2.98;;
59314;SDS011;46521;50.160;20.802;2022-07-24T14:08:38;6.00;;;3.10;;
59314;SDS011;46521;50.160;20.802;2022-07-24T14:18:41;5.67;;;3.03;;
59314;SDS011;46521;50.160;20.802;2022-07-24T14:28:43;6.30;;;2.83;;
59314;SDS011;46521;50.160;20.802;2022-07-24T14:38:44;5.33;;;2.70;;
59314;SDS011;46521;50.160;20.802;2022-07-24T14:48:46;4.90;;;2.75;;
59314;SDS011;46521;50.160;20.802;2022-07-24T14:58:47;4.93;;;2.43;;
59314;SDS011;46521;50.160;20.802;2022-07-24T15:08:48;6.60;;;3.00;;
59314;SDS011;46521;50.160;20.802;2022-07-24T15:18:49;5.50;;;2.70;;
59314;SDS011;46521;50.160;20.802;2022-07-24T15:28:51;5.73;;;2.93;;
59314;SDS011;46521;50.160;20.802;2022-07-24T15:38:53;5.35;;;2.50;;
59314;SDS011;46521;50.160;20.802;2022-07-24T15:48:55;5.65;;;2.70;;
59314;SDS011;46521;50.160;20.802;2022-07-24T15:58:56;7.17;;;3.13;;
59314;SDS011;46521;50.160;20.802;2022-07-24T16:08:58;6.50;;;2.95;;
59314;SDS011;46521;50.160;20.802;2022-07-24T16:19:00;6.48;;;2.40;;
59314;SDS011;46521;50.160;20.802;2022-07-24T16:29:02;5.97;;;2.40;;
59314;SDS011;46521;50.160;20.802;2022-07-24T16:39:04;12.60;;;7.53;;
59314;SDS011;46521;50.160;20.802;2022-07-24T16:49:05;9.83;;;6.38;;
59314;SDS011;46521;50.160;20.802;2022-07-24T16:59:07;5.68;;;2.70;;
59314;SDS011;46521;50.160;20.802;2022-07-24T17:09:09;3.90;;;2.10;;
59314;SDS011;46521;50.160;20.802;2022-07-24T17:19:10;4.50;;;2.00;;
59314;SDS011;46521;50.160;20.802;2022-07-24T17:29:12;4.25;;;1.88;;
59314;SDS011;46521;50.160;20.802;2022-07-24T17:39:13;3.43;;;1.55;;
59314;SDS011;46521;50.160;20.802;2022-07-24T17:49:14;3.18;;;1.58;;
59314;SDS011;46521;50.160;20.802;2022-07-24T17:59:16;4.20;;;1.70;;
59314;SDS011;46521;50.160;20.802;2022-07-24T18:09:17;5.35;;;2.00;;
59314;SDS011;46521;50.160;20.802;2022-07-24T18:19:18;4.23;;;2.03;;
59314;SDS011;46521;50.160;20.802;2022-07-24T18:29:20;7.07;;;3.10;;
59314;SDS011;46521;50.160;20.802;2022-07-24T18:39:22;12.63;;;4.85;;
59314;SDS011;46521;50.160;20.802;2022-07-24T18:49:23;17.37;;;8.70;;
59314;SDS011;46521;50.160;20.802;2022-07-24T18:59:25;10.33;;;4.63;;
59314;SDS011;46521;50.160;20.802;2022-07-24T19:09:26;7.88;;;3.88;;
59314;SDS011;46521;50.160;20.802;2022-07-24T19:19:29;5.00;;;2.50;;
59314;SDS011;46521;50.160;20.802;2022-07-24T19:29:30;8.70;;;3.53;;
59314;SDS011;46521;50.160;20.802;2022-07-24T19:39:32;5.88;;;2.50;;
59314;SDS011;46521;50.160;20.802;2022-07-24T19:49:33;8.55;;;4.50;;
59314;SDS011;46521;50.160;20.802;2022-07-24T19:59:34;7.20;;;2.63;;
59314;SDS011;46521;50.160;20.802;2022-07-24T20:09:36;5.13;;;2.43;;
59314;SDS011;46521;50.160;20.802;2022-07-24T20:19:38;6.45;;;2.78;;
59314;SDS011;46521;50.160;20.802;2022-07-24T20:29:39;7.50;;;2.80;;
59314;SDS011;46521;50.160;20.802;2022-07-24T20:39:41;6.87;;;3.37;;
59314;SDS011;46521;50.160;20.802;2022-07-24T20:49:42;5.53;;;2.78;;
59314;SDS011;46521;50.160;20.802;2022-07-24T20:59:44;5.70;;;2.88;;
59314;SDS011;46521;50.160;20.802;2022-07-24T21:09:45;5.83;;;2.83;;
59314;SDS011;46521;50.160;20.802;2022-07-24T21:19:47;7.03;;;3.10;;
59314;SDS011;46521;50.160;20.802;2022-07-24T21:29:48;6.40;;;3.23;;
59314;SDS011;46521;50.160;20.802;2022-07-24T21:39:50;6.98;;;3.55;;
59314;SDS011;46521;50.160;20.802;2022-07-24T21:49:51;7.30;;;3.60;;
59314;SDS011;46521;50.160;20.802;2022-07-24T21:59:52;7.45;;;3.83;;
59314;SDS011;46521;50.160;20.802;2022-07-24T22:09:54;5.55;;;2.70;;
59314;SDS011;46521;50.160;20.802;2022-07-24T22:19:55;7.10;;;3.48;;
59314;SDS011;46521;50.160;20.802;2022-07-24T22:29:58;6.20;;;3.55;;
59314;SDS011;46521;50.160;20.802;2022-07-24T22:40:00;7.65;;;3.55;;
59314;SDS011;46521;50.160;20.802;2022-07-24T23:00:06;6.98;;;3.65;;
59314;SDS011;46521;50.160;20.802;2022-07-24T23:10:08;6.78;;;3.30;;
59314;SDS011;46521;50.160;20.802;2022-07-24T23:20:11;6.43;;;3.33;;
59314;SDS011;46521;50.160;20.802;2022-07-24T23:30:12;6.77;;;3.50;;
59314;SDS011;46521;50.160;20.802;2022-07-24T23:40:14;8.15;;;3.85;;
59314;SDS011;46521;50.160;20.802;2022-07-24T23:50:16;8.20;;;4.05;;
